createdAt,value
2023-03-05T00:00:47.686Z,65160.16
2023-03-05T00:06:06.376Z,65138.47
2023-03-05T00:11:12.736Z,65168.16
2023-03-05T00:16:20.231Z,65198.97
2023-03-05T00:21:27.863Z,65144.22
2023-03-05T00:26:34.663Z,65158.03
2023-03-05T00:31:39.678Z,65220.25
2023-03-05T00:36:47.531Z,65189.84
2023-03-05T00:41:52.296Z,65149.53
2023-03-05T00:46:56.719Z,65203.25
2023-03-05T00:52:02.554Z,65169.22
2023-03-05T00:57:07.223Z,65263.88
2023-03-05T01:02:11.577Z,65229.09
2023-03-05T01:07:17.357Z,65242.59
2023-03-05T01:12:21.652Z,65343.91
2023-03-05T01:17:25.948Z,65392.78
2023-03-05T01:22:31.956Z,65384.69
2023-03-05T01:27:36.559Z,65452.34
2023-03-05T01:32:41.260Z,65464.06
2023-03-05T01:37:47.131Z,65497.34
2023-03-05T01:42:58.574Z,65483.91
2023-03-05T01:48:03.027Z,65491.25
2023-03-05T01:53:09.553Z,65496.59
2023-03-05T01:58:15.513Z,65508.84
2023-03-05T02:03:21.232Z,65395.34
2023-03-05T02:08:26.929Z,65468.88
2023-03-05T02:13:34.273Z,65461.94
2023-03-05T02:18:39.077Z,65440.19
2023-03-05T02:23:45.336Z,65394.81
2023-03-05T02:28:54.603Z,65377.13
2023-03-05T02:33:59.023Z,65374.69
2023-03-05T02:39:05.836Z,65325.81
2023-03-05T02:44:11.375Z,65238.34
2023-03-05T02:49:15.830Z,65089.50
2023-03-05T02:54:22.290Z,65217.06
2023-03-05T02:59:26.779Z,65271.31
2023-03-05T03:04:31.279Z,65209.31
2023-03-05T03:09:37.153Z,65204.19
2023-03-05T03:14:43.772Z,65236.09
2023-03-05T03:19:48.195Z,65205.38
2023-03-05T03:24:53.926Z,65236.31
2023-03-05T03:30:02.655Z,65147.94
2023-03-05T03:35:08.272Z,65076.53
2023-03-05T03:40:14.883Z,65106.06
2023-03-05T03:45:19.748Z,65186.66
2023-03-05T03:50:25.151Z,65045.94
2023-03-05T03:55:30.871Z,65004.63
2023-03-05T04:00:35.261Z,64990.09
2023-03-05T04:05:39.516Z,65063.56
2023-03-05T04:10:45.443Z,65157.50
2023-03-05T04:15:50.481Z,65349.66
2023-03-05T04:20:54.955Z,65286.84
2023-03-05T04:26:00.680Z,65313.69
2023-03-05T04:31:04.894Z,65365.97
2023-03-05T04:36:10.112Z,65390.56
2023-03-05T04:41:15.899Z,65398.66
2023-03-05T04:46:20.134Z,65411.44
2023-03-05T04:51:24.511Z,65345.19
2023-03-05T04:56:30.275Z,65383.09
2023-03-05T05:01:35.535Z,65409.75
2023-03-05T05:06:39.946Z,65401.22
2023-03-05T05:11:45.745Z,65460.34
2023-03-05T05:16:50.071Z,65451.09
2023-03-05T05:21:54.343Z,65413.13
2023-03-05T05:27:00.150Z,65415.16
2023-03-05T05:32:04.539Z,65445.97
2023-03-05T05:37:09.062Z,65512.16
2023-03-05T05:42:14.899Z,65404.75
2023-03-05T05:47:19.655Z,65454.16
2023-03-05T05:52:24.342Z,65418.69
2023-03-05T05:57:30.088Z,65403.34
2023-03-05T06:02:34.441Z,65385.88
2023-03-05T06:07:38.887Z,65386.28
2023-03-05T06:12:44.772Z,65260.69
2023-03-05T06:17:49.400Z,65380.31
2023-03-05T06:22:53.764Z,65220.78
2023-03-05T06:27:59.580Z,65273.88
2023-03-05T06:33:07.356Z,65155.38
2023-03-05T06:38:12.903Z,65179.22
2023-03-05T06:43:18.995Z,65167.31
2023-03-05T06:48:23.340Z,65131.88
2023-03-05T06:53:28.343Z,65140.09
2023-03-05T06:58:34.115Z,65113.94
2023-03-05T07:03:39.216Z,65180.16
2023-03-05T07:08:46.803Z,65146.88
2023-03-05T07:14:00.360Z,65137.31
2023-03-05T07:19:14.693Z,65195.69
2023-03-05T07:24:19.296Z,65218.13
2023-03-05T07:29:25.323Z,65326.78
2023-03-05T07:34:30.100Z,65207.59
2023-03-05T07:39:34.710Z,65200.56
2023-03-05T07:44:40.496Z,65154.34
2023-03-05T07:49:44.440Z,65274.50
2023-03-05T07:54:48.712Z,65209.94
2023-03-05T07:59:54.476Z,65229.81
2023-03-05T08:04:58.646Z,65205.38
2023-03-05T08:10:03.741Z,65194.72
2023-03-05T08:15:10.579Z,65223.44
2023-03-05T08:20:15.310Z,65234.41
2023-03-05T08:25:19.707Z,65193.66
2023-03-05T08:30:27.617Z,65246.84
2023-03-05T08:35:32.378Z,65233.00
2023-03-05T08:40:36.883Z,65304.22
2023-03-05T08:45:42.748Z,65310.69
2023-03-05T08:50:47.263Z,65241.97
2023-03-05T08:55:56.198Z,65233.53
2023-03-05T09:01:02.035Z,65280.25
2023-03-05T09:06:07.753Z,65291.53
2023-03-05T09:11:14.601Z,65297.19
2023-03-05T09:16:21.224Z,65278.34
2023-03-05T09:21:25.919Z,65269.81
2023-03-05T09:26:30.593Z,65284.19
2023-03-05T09:31:39.461Z,65234.63
2023-03-05T09:36:49.265Z,65240.16
2023-03-05T09:42:29.959Z,65285.16
2023-03-05T09:48:20.505Z,65252.28
2023-03-05T09:54:40.371Z,65325.06
2023-03-05T10:00:33.172Z,65306.97
2023-03-05T10:06:08.693Z,65288.88
2023-03-05T10:11:55.151Z,65286.84
2023-03-05T10:17:43.943Z,65384.78
2023-03-05T10:23:24.871Z,65306.00
2023-03-05T10:28:37.132Z,65340.06
2023-03-05T10:33:48.895Z,65320.72
2023-03-05T10:39:30.919Z,65334.13
2023-03-05T10:44:38.935Z,65330.94
2023-03-05T10:49:51.783Z,65381.69
2023-03-05T10:54:57.696Z,65431.56
2023-03-05T11:00:08.502Z,65321.78
2023-03-05T11:05:38.816Z,65319.22
2023-03-05T11:10:44.800Z,65328.28
2023-03-05T11:16:06.324Z,65381.50
2023-03-05T11:21:13.870Z,65364.25
2023-03-05T11:26:24.399Z,65398.66
2023-03-05T11:31:30.360Z,65447.66
2023-03-05T11:36:34.987Z,65438.06
2023-03-05T11:41:49.542Z,65402.81
2023-03-05T11:46:57.721Z,65435.31
2023-03-05T11:52:10.883Z,65547.34
2023-03-05T11:57:34.669Z,65439.56
2023-03-05T12:02:40.169Z,65485.41
2023-03-05T12:07:48.417Z,65507.25
2023-03-05T12:13:01.424Z,65473.34
2023-03-05T12:18:22.105Z,65467.28
2023-03-05T12:23:28.162Z,65540.22
2023-03-05T12:28:57.407Z,65494.38
2023-03-05T12:34:21.988Z,65494.56
2023-03-05T12:46:36.844Z,65489.22
2023-03-05T12:51:44.064Z,65478.91
2023-03-05T12:56:49.275Z,65480.78
2023-03-05T13:01:58.157Z,65504.69
2023-03-05T13:07:19.215Z,65433.38
2023-03-05T13:12:30.644Z,65490.72
2023-03-05T13:17:44.510Z,65516.41
2023-03-05T13:22:48.872Z,65469.50
2023-03-05T13:27:53.394Z,65476.34
2023-03-05T13:33:04.244Z,65444.03
2023-03-05T13:38:22.663Z,65432.63
2023-03-05T13:43:28.558Z,65418.38
2023-03-05T13:48:34.824Z,65433.06
2023-03-05T13:53:41.781Z,65440.09
2023-03-05T13:58:49.826Z,65542.44
2023-03-05T14:03:58.803Z,65482.72
2023-03-05T14:09:07.827Z,65403.34
2023-03-05T14:14:19.243Z,65389.38
2023-03-05T14:19:37.149Z,65283.03
2023-03-05T14:24:42.948Z,65179.84
2023-03-05T14:29:47.873Z,65205.38
2023-03-05T14:34:58.593Z,65212.16
2023-03-05T14:40:06.557Z,65231.41
2023-03-05T14:45:16.807Z,65196.22
2023-03-05T14:50:25.343Z,65179.84
2023-03-05T14:55:32.313Z,65180.78
2023-03-05T15:00:36.890Z,65211.00
2023-03-05T15:05:44.074Z,65251.00
2023-03-05T15:10:48.619Z,65224.41
2023-03-05T15:15:56.850Z,65252.69
2023-03-05T15:21:10.149Z,65215.56
2023-03-05T15:26:16.555Z,65159.00
2023-03-05T15:31:21.087Z,65212.38
2023-03-05T15:36:27.135Z,65210.25
2023-03-05T15:41:31.615Z,65196.31
2023-03-05T15:46:36.267Z,65214.72
2023-03-05T15:51:42.145Z,65295.81
2023-03-05T15:56:46.583Z,65316.00
2023-03-05T16:01:52.812Z,65231.94
2023-03-05T16:07:03.216Z,65236.66
2023-03-05T16:12:14.343Z,65225.47
2023-03-05T16:17:20.890Z,65255.38
2023-03-05T16:22:27.008Z,65226.31
2023-03-05T16:27:31.892Z,65235.25
2023-03-05T16:32:38.595Z,65266.09
2023-03-05T16:37:51.176Z,65299.19
2023-03-05T16:42:55.756Z,65308.56
2023-03-05T16:48:00.349Z,65283.66
2023-03-05T16:53:06.543Z,65258.03
2023-03-05T16:58:11.101Z,65201.75
2023-03-05T17:03:15.848Z,65209.63
2023-03-05T17:08:22.240Z,65257.91
2023-03-05T17:13:26.698Z,65315.81
2023-03-05T17:18:31.372Z,65252.91
2023-03-05T17:23:38.444Z,65229.28
2023-03-05T17:28:43.434Z,65227.69
2023-03-05T17:33:48.412Z,65241.31
2023-03-05T17:38:55.264Z,65202.59
2023-03-05T17:43:59.634Z,65219.28
2023-03-05T17:49:04.456Z,65303.25
2023-03-05T17:54:10.402Z,65236.75
2023-03-05T17:59:15.626Z,65223.44
2023-03-05T18:04:20.599Z,65194.41
2023-03-05T18:09:26.516Z,65227.91
2023-03-05T18:14:31.102Z,65201.00
2023-03-05T18:19:35.654Z,65221.97
2023-03-05T18:24:42.229Z,65244.19
2023-03-05T18:29:46.908Z,65203.13
2023-03-05T18:34:52.943Z,65154.88
2023-03-05T18:39:59.243Z,65185.69
2023-03-05T18:45:04.704Z,65178.88
2023-03-05T18:50:10.256Z,65227.69
2023-03-05T18:55:17.208Z,65279.72
2023-03-05T19:00:24.065Z,65116.28
2023-03-05T19:05:28.731Z,65206.44
2023-03-05T19:10:35.244Z,65208.75
2023-03-05T19:15:41.295Z,65162.09
2023-03-05T19:20:46.993Z,65163.69
2023-03-05T19:25:52.982Z,65178.47
2023-03-05T19:30:57.569Z,65272.28
2023-03-05T19:36:02.185Z,65161.75
2023-03-05T19:41:09.996Z,65171.31
2023-03-05T19:46:14.716Z,65113.50
2023-03-05T19:51:23.258Z,65155.50
2023-03-05T19:56:29.164Z,65208.56
2023-03-05T20:01:33.574Z,65183.66
2023-03-05T20:06:38.996Z,65110.75
2023-03-05T20:11:45.114Z,65172.41
2023-03-05T20:16:49.492Z,65105.63
2023-03-05T20:21:54.285Z,65128.28
2023-03-05T20:27:00.741Z,65187.28
2023-03-05T20:32:05.483Z,65146.88
2023-03-05T20:37:10.178Z,65110.75
2023-03-05T20:42:16.228Z,65091.19
2023-03-05T20:47:32.379Z,65117.13
2023-03-05T20:52:37.136Z,65128.81
2023-03-05T20:57:46.663Z,65181.03
2023-03-05T21:02:51.854Z,65116.16
2023-03-05T21:07:56.359Z,65134.56
2023-03-05T21:13:02.303Z,65164.97
2023-03-05T21:18:06.683Z,65097.47
2023-03-05T21:23:11.693Z,65130.84
2023-03-05T21:28:18.741Z,65122.66
2023-03-05T21:33:26.814Z,65144.75
2023-03-05T21:38:34.104Z,65152.63
2023-03-05T21:43:40.101Z,65183.25
2023-03-05T21:48:44.618Z,65188.03
2023-03-05T21:53:49.357Z,65170.91
2023-03-05T21:58:55.589Z,65133.59
2023-03-05T22:04:00.032Z,65167.19
2023-03-05T22:09:04.416Z,65214.94
2023-03-05T22:14:10.363Z,65227.59
2023-03-05T22:19:15.978Z,65195.78
2023-03-05T22:24:21.878Z,65187.28
2023-03-05T22:29:27.434Z,65213.22
2023-03-05T22:34:31.706Z,65130.63
2023-03-05T22:39:36.173Z,65192.50
2023-03-05T22:44:41.873Z,65115.97
2023-03-05T22:49:46.961Z,65172.72
2023-03-05T22:54:51.346Z,65141.03
2023-03-05T22:59:57.042Z,65127.22
2023-03-05T23:05:01.672Z,65117.88
2023-03-05T23:10:08.684Z,65115.84
2023-03-05T23:15:16.526Z,65128.81
2023-03-05T23:20:22.726Z,65111.28
2023-03-05T23:25:30.103Z,65144.66
2023-03-05T23:30:39.499Z,65104.38
2023-03-05T23:35:50.306Z,65189.09
2023-03-05T23:40:56.198Z,65139.88
2023-03-05T23:46:02.056Z,65187.38
2023-03-05T23:51:10.385Z,65160.06
2023-03-05T23:56:14.675Z,65178.25
